createdAt,value
2022-10-09T00:01:27.719Z,14.50
2022-10-09T00:03:57.143Z,14.50
2022-10-09T00:06:28.645Z,14.40
2022-10-09T00:08:56.365Z,14.40
2022-10-09T00:11:27.099Z,14.30
2022-10-09T00:13:55.876Z,14.20
2022-10-09T00:16:24.345Z,14.20
2022-10-09T00:18:52.384Z,14.10
2022-10-09T00:21:24.997Z,14.00
2022-10-09T00:23:54.770Z,13.90
2022-10-09T00:26:22.593Z,13.90
2022-10-09T00:28:50.357Z,13.90
2022-10-09T00:31:18.641Z,13.80
2022-10-09T00:33:46.392Z,13.80
2022-10-09T00:36:18.048Z,13.70
2022-10-09T00:38:45.350Z,13.70
2022-10-09T00:41:31.072Z,13.60
2022-10-09T00:44:01.597Z,13.60
2022-10-09T00:46:49.194Z,13.50
2022-10-09T00:49:28.414Z,13.50
2022-10-09T00:52:00.834Z,13.40
2022-10-09T00:54:32.498Z,13.40
2022-10-09T00:57:00.144Z,13.30
2022-10-09T00:59:28.122Z,13.20
2022-10-09T01:01:55.382Z,13.20
2022-10-09T01:04:22.675Z,13.10
2022-10-09T01:07:17.019Z,13.10
2022-10-09T01:10:15.670Z,13.00
2022-10-09T01:13:17.107Z,13.00
2022-10-09T01:15:44.207Z,12.90
2022-10-09T01:18:43.931Z,12.90
2022-10-09T01:21:31.622Z,12.80
2022-10-09T01:24:32.883Z,12.70
2022-10-09T01:27:02.857Z,12.70
2022-10-09T01:29:43.037Z,12.60
2022-10-09T01:32:14.692Z,12.60
2022-10-09T01:34:45.630Z,12.60
2022-10-09T01:37:15.394Z,12.50
2022-10-09T01:39:44.644Z,12.50
2022-10-09T01:42:14.653Z,12.40
2022-10-09T01:44:42.741Z,12.40
2022-10-09T01:47:18.628Z,12.40
2022-10-09T01:50:22.910Z,12.40
2022-10-09T01:53:08.514Z,12.30
2022-10-09T01:55:51.398Z,12.30
2022-10-09T01:58:37.837Z,12.20
2022-10-09T02:01:17.927Z,12.20
2022-10-09T02:03:49.667Z,12.20
2022-10-09T02:06:19.261Z,12.10
2022-10-09T02:08:50.283Z,12.10
2022-10-09T02:11:18.095Z,12.00
2022-10-09T02:13:48.669Z,12.00
2022-10-09T02:16:42.202Z,11.90
2022-10-09T02:19:24.469Z,11.90
2022-10-09T02:22:04.709Z,11.90
2022-10-09T02:24:32.608Z,11.80
2022-10-09T02:27:01.031Z,11.80
2022-10-09T02:29:28.381Z,11.70
2022-10-09T02:31:55.641Z,11.70
2022-10-09T02:34:23.088Z,11.70
2022-10-09T02:36:50.195Z,11.60
2022-10-09T02:39:18.028Z,11.60
2022-10-09T02:41:45.203Z,11.60
2022-10-09T02:44:12.468Z,11.50
2022-10-09T02:46:39.720Z,11.50
2022-10-09T02:49:07.906Z,11.40
2022-10-09T02:51:35.186Z,11.40
2022-10-09T02:54:02.559Z,11.30
2022-10-09T02:56:30.343Z,11.30
2022-10-09T02:58:57.895Z,11.20
2022-10-09T03:01:25.318Z,11.20
2022-10-09T03:03:52.724Z,11.20
2022-10-09T03:06:26.297Z,11.10
2022-10-09T03:08:55.021Z,11.10
2022-10-09T03:11:24.418Z,11.00
2022-10-09T03:13:51.814Z,11.00
2022-10-09T03:16:22.226Z,10.90
2022-10-09T03:18:50.954Z,10.90
2022-10-09T03:21:24.273Z,10.80
2022-10-09T03:23:53.509Z,10.80
2022-10-09T03:26:27.311Z,10.80
2022-10-09T03:28:55.903Z,10.70
2022-10-09T03:34:13.180Z,10.70
2022-10-09T03:36:40.620Z,10.60
2022-10-09T03:39:08.057Z,10.60
2022-10-09T03:41:35.142Z,10.50
2022-10-09T03:44:02.348Z,10.50
2022-10-09T03:46:29.488Z,10.50
2022-10-09T03:48:56.653Z,10.50
2022-10-09T03:51:23.859Z,10.40
2022-10-09T03:53:50.947Z,10.40
2022-10-09T03:56:18.067Z,10.40
2022-10-09T03:58:45.337Z,10.30
2022-10-09T04:01:12.413Z,10.30
2022-10-09T04:03:39.614Z,10.20
2022-10-09T04:06:06.936Z,10.20
2022-10-09T04:08:35.702Z,10.20
2022-10-09T04:11:03.645Z,10.10
2022-10-09T04:13:30.993Z,10.10
2022-10-09T04:15:58.333Z,10.10
2022-10-09T04:18:25.817Z,10.00
2022-10-09T04:20:55.624Z,10.00
2022-10-09T04:23:26.452Z,10.00
2022-10-09T04:25:55.699Z,10.00
2022-10-09T04:28:23.706Z,9.90
2022-10-09T04:30:51.213Z,9.90
2022-10-09T04:33:18.763Z,9.90
2022-10-09T04:35:49.495Z,9.80
2022-10-09T04:38:16.850Z,9.80
2022-10-09T04:40:44.142Z,9.80
2022-10-09T04:43:11.300Z,9.80
2022-10-09T04:45:41.937Z,9.80
2022-10-09T04:48:09.165Z,9.80
2022-10-09T04:50:39.713Z,9.70
2022-10-09T04:53:06.897Z,9.80
2022-10-09T04:55:39.086Z,9.80
2022-10-09T04:58:06.666Z,9.80
2022-10-09T05:00:33.968Z,9.80
2022-10-09T05:03:01.081Z,9.80
2022-10-09T05:05:28.182Z,9.80
2022-10-09T05:07:55.286Z,9.80
2022-10-09T05:10:22.378Z,9.80
2022-10-09T05:12:49.840Z,9.80
2022-10-09T05:15:17.523Z,9.80
2022-10-09T05:17:44.587Z,9.80
2022-10-09T05:20:11.971Z,9.80
2022-10-09T05:22:39.051Z,9.80
2022-10-09T05:25:07.424Z,9.80
2022-10-09T05:27:34.452Z,9.80
2022-10-09T05:30:01.810Z,9.80
2022-10-09T05:32:28.979Z,9.80
2022-10-09T05:34:56.160Z,9.80
2022-10-09T05:37:23.268Z,9.90
2022-10-09T05:39:50.276Z,9.80
2022-10-09T05:42:17.469Z,9.80
2022-10-09T05:44:44.621Z,9.90
2022-10-09T05:47:13.709Z,9.90
2022-10-09T05:49:40.925Z,9.90
2022-10-09T05:52:07.923Z,9.90
2022-10-09T05:54:35.077Z,9.90
2022-10-09T05:57:02.468Z,9.90
2022-10-09T05:59:29.516Z,9.90
2022-10-09T06:01:56.917Z,10.00
2022-10-09T06:04:25.370Z,10.00
2022-10-09T06:06:52.747Z,10.10
2022-10-09T06:09:23.409Z,10.10
2022-10-09T06:11:52.542Z,10.20
2022-10-09T06:14:22.307Z,10.30
2022-10-09T06:16:49.871Z,10.40
2022-10-09T06:19:19.487Z,10.50
2022-10-09T06:21:47.252Z,10.60
2022-10-09T06:24:28.149Z,10.70
2022-10-09T06:26:57.153Z,10.80
2022-10-09T06:29:24.648Z,10.90
2022-10-09T06:31:51.796Z,11.00
2022-10-09T06:34:19.130Z,11.10
2022-10-09T06:36:46.182Z,11.20
2022-10-09T06:39:13.339Z,11.30
2022-10-09T06:41:40.643Z,11.40
2022-10-09T06:44:16.075Z,11.50
2022-10-09T06:46:45.931Z,11.60
2022-10-09T06:49:13.155Z,11.70
2022-10-09T06:51:40.316Z,11.70
2022-10-09T06:54:14.311Z,11.80
2022-10-09T06:56:42.109Z,11.90
2022-10-09T06:59:10.879Z,12.00
2022-10-09T07:01:38.226Z,12.10
2022-10-09T07:04:10.119Z,12.20
2022-10-09T07:06:39.917Z,12.20
2022-10-09T07:09:11.272Z,12.40
2022-10-09T07:11:45.233Z,12.50
2022-10-09T07:14:14.261Z,12.60
2022-10-09T07:16:45.582Z,12.70
2022-10-09T07:19:15.946Z,12.80
2022-10-09T07:21:46.856Z,12.90
2022-10-09T07:24:14.648Z,13.00
2022-10-09T07:26:45.617Z,13.10
2022-10-09T07:29:16.564Z,13.30
2022-10-09T07:31:44.274Z,13.50
2022-10-09T07:34:11.928Z,13.60
2022-10-09T07:36:38.947Z,13.80
2022-10-09T07:39:06.358Z,13.90
2022-10-09T07:41:33.898Z,14.00
2022-10-09T07:44:01.106Z,14.10
2022-10-09T07:46:33.322Z,14.20
2022-10-09T07:49:01.986Z,14.30
2022-10-09T07:51:30.834Z,14.40
2022-10-09T07:54:00.241Z,14.40
2022-10-09T07:56:36.051Z,14.50
2022-10-09T07:59:07.819Z,14.60
2022-10-09T08:01:36.532Z,14.70
2022-10-09T08:04:04.664Z,14.80
2022-10-09T08:06:32.767Z,14.90
2022-10-09T08:09:01.938Z,15.10
2022-10-09T08:11:30.227Z,15.30
2022-10-09T08:13:58.126Z,15.40
2022-10-09T08:16:27.233Z,15.50
2022-10-09T08:18:56.801Z,15.60
2022-10-09T08:21:24.120Z,15.80
2022-10-09T08:23:57.555Z,15.90
2022-10-09T08:26:27.805Z,16.00
2022-10-09T08:29:02.166Z,16.10
2022-10-09T08:31:30.181Z,16.20
2022-10-09T08:34:00.046Z,16.30
2022-10-09T08:36:28.175Z,16.40
2022-10-09T08:38:55.809Z,16.50
2022-10-09T08:41:48.037Z,16.60
2022-10-09T08:44:22.766Z,16.80
2022-10-09T08:46:52.678Z,17.00
2022-10-09T08:49:30.480Z,17.10
2022-10-09T08:52:05.661Z,17.20
2022-10-09T08:54:38.604Z,17.30
2022-10-09T08:57:14.439Z,17.40
2022-10-09T08:59:42.200Z,17.40
2022-10-09T09:02:54.242Z,17.50
2022-10-09T09:05:51.293Z,17.60
2022-10-09T09:09:08.922Z,17.70
2022-10-09T09:11:51.637Z,17.90
2022-10-09T09:14:18.646Z,17.90
2022-10-09T09:17:11.980Z,18.00
2022-10-09T09:20:23.965Z,18.10
2022-10-09T09:22:51.834Z,18.20
2022-10-09T09:25:35.017Z,18.20
2022-10-09T09:28:18.653Z,18.30
2022-10-09T09:30:51.446Z,18.40
2022-10-09T09:33:44.393Z,18.50
2022-10-09T09:36:32.277Z,18.60
2022-10-09T09:41:46.505Z,18.70
2022-10-09T09:44:16.729Z,18.70
2022-10-09T09:46:48.306Z,18.80
2022-10-09T09:49:27.262Z,18.80
2022-10-09T09:51:58.723Z,18.80
2022-10-09T09:54:30.846Z,18.90
2022-10-09T09:57:12.330Z,19.00
2022-10-09T09:59:43.997Z,19.00
2022-10-09T10:02:26.968Z,19.00
2022-10-09T10:05:07.086Z,19.10
2022-10-09T10:07:38.878Z,19.10
2022-10-09T10:10:25.845Z,19.10
2022-10-09T10:12:53.216Z,19.20
2022-10-09T10:15:34.621Z,19.20
2022-10-09T10:18:06.074Z,19.20
2022-10-09T10:20:45.587Z,19.30
2022-10-09T10:23:43.300Z,19.30
2022-10-09T10:26:41.736Z,19.40
2022-10-09T10:29:27.691Z,19.40
2022-10-09T10:32:24.882Z,19.50
2022-10-09T10:35:31.032Z,19.50
2022-10-09T10:38:30.115Z,19.50
2022-10-09T10:41:03.103Z,19.50
2022-10-09T10:43:48.385Z,19.50
2022-10-09T10:46:38.561Z,19.60
2022-10-09T10:49:09.713Z,19.70
2022-10-09T10:51:57.671Z,19.80
2022-10-09T10:55:34.949Z,19.80
2022-10-09T10:58:45.831Z,19.90
2022-10-09T11:01:25.804Z,20.00
2022-10-09T11:04:22.893Z,20.00
2022-10-09T11:07:00.975Z,20.00
2022-10-09T11:09:33.281Z,20.10
2022-10-09T11:12:47.443Z,20.10
2022-10-09T11:15:37.761Z,20.10
2022-10-09T11:18:32.553Z,20.20
2022-10-09T11:21:19.449Z,20.20
2022-10-09T11:24:04.468Z,20.20
2022-10-09T11:26:52.983Z,20.20
2022-10-09T11:29:47.003Z,20.30
2022-10-09T11:32:47.797Z,20.30
2022-10-09T11:35:43.128Z,20.30
2022-10-09T11:38:27.083Z,20.30
2022-10-09T11:40:56.021Z,20.30
2022-10-09T11:43:26.045Z,20.20
2022-10-09T11:46:24.120Z,20.20
2022-10-09T11:49:29.108Z,20.30
2022-10-09T11:53:02.467Z,20.20
2022-10-09T11:55:33.282Z,20.30
2022-10-09T11:58:14.949Z,20.30
2022-10-09T12:00:42.939Z,20.30
2022-10-09T12:03:33.374Z,20.30
2022-10-09T12:06:16.832Z,20.30
2022-10-09T12:08:53.879Z,20.40
2022-10-09T12:11:22.195Z,20.40
2022-10-09T12:14:02.438Z,20.40
2022-10-09T12:16:46.453Z,20.50
2022-10-09T12:19:28.925Z,20.50
2022-10-09T12:22:02.969Z,20.50
2022-10-09T12:24:46.294Z,20.50
2022-10-09T12:27:23.975Z,20.50
2022-10-09T12:30:20.679Z,20.60
2022-10-09T12:33:02.441Z,20.60
2022-10-09T12:35:39.407Z,20.60
2022-10-09T12:38:26.344Z,20.60
2022-10-09T12:40:56.353Z,20.50
2022-10-09T12:43:24.336Z,20.40
2022-10-09T12:45:53.322Z,20.40
2022-10-09T12:48:25.895Z,20.40
2022-10-09T12:50:54.282Z,20.40
2022-10-09T12:53:27.037Z,20.30
2022-10-09T12:56:00.665Z,20.30
2022-10-09T12:58:36.097Z,20.30
2022-10-09T13:01:10.995Z,20.20
2022-10-09T13:04:06.131Z,20.20
2022-10-09T13:06:44.840Z,20.20
2022-10-09T13:09:40.044Z,20.20
2022-10-09T13:12:24.863Z,20.20
2022-10-09T13:15:37.111Z,20.20
2022-10-09T13:18:23.599Z,20.20
2022-10-09T13:21:05.454Z,20.20
2022-10-09T13:23:36.550Z,20.20
2022-10-09T13:26:06.106Z,20.20
2022-10-09T13:28:33.496Z,20.20
2022-10-09T13:31:08.509Z,20.20
2022-10-09T13:33:35.699Z,20.20
2022-10-09T13:36:02.825Z,20.20
2022-10-09T13:38:34.652Z,20.20
2022-10-09T13:41:02.133Z,20.20
2022-10-09T13:43:31.157Z,20.20
2022-10-09T13:45:58.901Z,20.20
2022-10-09T13:48:26.216Z,20.20
2022-10-09T13:50:53.249Z,20.20
2022-10-09T13:53:20.503Z,20.30
2022-10-09T13:55:47.764Z,20.30
2022-10-09T13:58:14.919Z,20.30
2022-10-09T14:00:45.529Z,20.30
2022-10-09T14:03:12.829Z,20.40
2022-10-09T14:05:40.960Z,20.40
2022-10-09T14:08:08.512Z,20.50
2022-10-09T14:10:35.739Z,20.50
2022-10-09T14:13:02.929Z,20.60
2022-10-09T14:15:29.954Z,20.70
2022-10-09T14:17:57.142Z,20.70
2022-10-09T14:20:25.283Z,20.80
2022-10-09T14:22:52.503Z,20.80
2022-10-09T14:25:19.632Z,20.90
2022-10-09T14:27:46.753Z,21.00
2022-10-09T14:30:14.439Z,21.00
2022-10-09T14:32:41.538Z,21.10
2022-10-09T14:35:09.263Z,21.30
2022-10-09T14:37:41.704Z,21.40
2022-10-09T14:40:11.156Z,21.60
2022-10-09T14:42:39.422Z,21.70
2022-10-09T14:45:08.267Z,21.80
2022-10-09T14:47:35.530Z,21.90
2022-10-09T14:50:02.660Z,22.10
2022-10-09T14:52:30.442Z,22.10
2022-10-09T14:54:57.538Z,22.20
2022-10-09T14:57:24.703Z,22.30
2022-10-09T14:59:51.920Z,22.40
2022-10-09T15:02:20.010Z,22.50
2022-10-09T15:04:47.223Z,22.50
2022-10-09T15:07:14.304Z,22.60
2022-10-09T15:09:41.434Z,22.70
2022-10-09T15:12:08.502Z,22.80
2022-10-09T15:14:35.653Z,22.80
2022-10-09T15:17:02.878Z,22.80
2022-10-09T15:19:30.052Z,22.80
2022-10-09T15:21:57.068Z,22.70
2022-10-09T15:24:24.136Z,22.70
2022-10-09T15:26:51.143Z,22.60
2022-10-09T15:29:18.267Z,22.50
2022-10-09T15:31:45.309Z,22.40
2022-10-09T15:34:18.511Z,22.30
2022-10-09T15:36:46.469Z,22.20
2022-10-09T15:39:14.888Z,22.00
2022-10-09T15:41:43.906Z,21.80
2022-10-09T15:44:18.349Z,21.60
2022-10-09T15:46:47.481Z,21.50
2022-10-09T15:49:14.680Z,21.30
2022-10-09T15:51:42.106Z,21.20
2022-10-09T15:54:10.992Z,21.00
2022-10-09T15:56:40.143Z,20.90
2022-10-09T15:59:11.697Z,20.80
2022-10-09T16:01:39.018Z,20.60
2022-10-09T16:04:06.208Z,20.50
2022-10-09T16:06:33.221Z,20.40
2022-10-09T16:09:01.154Z,20.20
2022-10-09T16:11:28.341Z,20.00
2022-10-09T16:13:56.434Z,19.90
2022-10-09T16:16:26.302Z,19.80
2022-10-09T16:18:55.354Z,19.70
2022-10-09T16:21:26.701Z,19.50
2022-10-09T16:23:58.485Z,19.40
2022-10-09T16:26:29.096Z,19.20
2022-10-09T16:28:56.564Z,19.10
2022-10-09T16:31:31.209Z,19.00
2022-10-09T16:33:58.718Z,18.80
2022-10-09T16:36:26.011Z,18.70
2022-10-09T16:38:53.331Z,18.50
2022-10-09T16:41:22.736Z,18.40
2022-10-09T16:43:53.639Z,18.30
2022-10-09T16:49:05.337Z,18.00
2022-10-09T16:51:35.811Z,17.90
2022-10-09T16:54:06.299Z,17.80
2022-10-09T16:56:37.580Z,17.70
2022-10-09T16:59:09.029Z,17.60
2022-10-09T17:01:37.953Z,17.50
2022-10-09T17:04:05.861Z,17.40
2022-10-09T17:06:33.097Z,17.30
2022-10-09T17:09:00.950Z,17.20
2022-10-09T17:11:30.629Z,17.20
2022-10-09T17:13:58.691Z,17.10
2022-10-09T17:16:31.300Z,17.00
2022-10-09T17:18:58.722Z,17.00
2022-10-09T17:21:29.734Z,16.90
2022-10-09T17:24:02.520Z,16.80
2022-10-09T17:26:30.467Z,16.80
2022-10-09T17:28:59.423Z,16.70
2022-10-09T17:31:28.125Z,16.70
2022-10-09T17:34:03.076Z,16.60
2022-10-09T17:36:34.920Z,16.50
2022-10-09T17:39:02.417Z,16.40
2022-10-09T17:41:29.821Z,16.40
2022-10-09T17:43:58.224Z,16.30
2022-10-09T17:46:27.699Z,16.30
2022-10-09T17:48:56.859Z,16.20
2022-10-09T17:51:34.805Z,16.10
2022-10-09T17:54:08.225Z,16.10
2022-10-09T17:56:39.169Z,16.00
2022-10-09T17:59:06.743Z,15.90
2022-10-09T18:01:34.284Z,15.90
2022-10-09T18:04:01.791Z,15.80
2022-10-09T18:06:33.219Z,15.80
2022-10-09T18:09:01.006Z,15.70
2022-10-09T18:11:28.907Z,15.70
2022-10-09T18:13:56.462Z,15.60
2022-10-09T18:16:36.129Z,15.60
2022-10-09T18:19:16.060Z,15.50
2022-10-09T18:21:48.930Z,15.50
2022-10-09T18:24:16.360Z,15.40
2022-10-09T18:26:44.608Z,15.40
2022-10-09T18:29:11.758Z,15.30
2022-10-09T18:31:39.061Z,15.30
2022-10-09T18:34:06.287Z,15.20
2022-10-09T18:36:34.187Z,15.20
2022-10-09T18:39:13.260Z,15.10
2022-10-09T18:41:41.029Z,15.10
2022-10-09T18:44:17.331Z,15.10
2022-10-09T18:46:54.632Z,15.00
2022-10-09T18:49:25.954Z,15.00
2022-10-09T18:51:53.372Z,15.00
2022-10-09T18:54:24.641Z,14.90
2022-10-09T18:56:53.184Z,14.90
2022-10-09T18:59:22.304Z,14.90
2022-10-09T19:01:49.646Z,14.80
2022-10-09T19:04:16.845Z,14.80
2022-10-09T19:06:44.109Z,14.80
2022-10-09T19:09:11.393Z,14.70
2022-10-09T19:11:38.449Z,14.70
2022-10-09T19:14:05.816Z,14.70
2022-10-09T19:16:34.667Z,14.70
2022-10-09T19:19:02.074Z,14.60
2022-10-09T19:21:29.194Z,14.60
2022-10-09T19:23:56.503Z,14.60
2022-10-09T19:26:24.051Z,14.60
2022-10-09T19:28:51.968Z,14.60
2022-10-09T19:31:19.153Z,14.50
2022-10-09T19:33:46.479Z,14.50
2022-10-09T19:36:14.812Z,14.50
2022-10-09T19:38:42.674Z,14.50
2022-10-09T19:41:14.111Z,14.50
2022-10-09T19:43:42.046Z,14.40
2022-10-09T19:46:14.460Z,14.40
2022-10-09T19:48:41.793Z,14.40
2022-10-09T19:51:13.116Z,14.40
2022-10-09T19:53:40.951Z,14.40
2022-10-09T19:56:17.115Z,14.40
2022-10-09T19:58:46.443Z,14.30
2022-10-09T20:01:17.790Z,14.30
2022-10-09T20:03:45.937Z,14.30
2022-10-09T20:06:13.395Z,14.30
2022-10-09T20:08:42.671Z,14.20
2022-10-09T20:11:12.406Z,14.20
2022-10-09T20:13:41.901Z,14.20
2022-10-09T20:16:13.103Z,14.20
2022-10-09T20:18:42.424Z,14.20
2022-10-09T20:21:12.195Z,14.10
2022-10-09T20:23:39.667Z,14.10
2022-10-09T20:26:12.051Z,14.10
2022-10-09T20:28:39.573Z,14.10
2022-10-09T20:31:10.613Z,14.00
2022-10-09T20:33:39.074Z,14.00
2022-10-09T20:36:07.312Z,14.00
2022-10-09T20:38:35.426Z,13.90
2022-10-09T20:41:08.673Z,13.90
2022-10-09T20:43:36.595Z,13.90
2022-10-09T20:46:14.339Z,13.80
2022-10-09T20:48:43.084Z,13.80
2022-10-09T20:51:10.402Z,13.70
2022-10-09T20:53:37.591Z,13.70
2022-10-09T20:56:08.543Z,13.70
2022-10-09T20:58:36.141Z,13.60
2022-10-09T21:01:11.350Z,13.60
2022-10-09T21:03:39.406Z,13.60
2022-10-09T21:06:10.460Z,13.50
2022-10-09T21:08:37.932Z,13.50
2022-10-09T21:11:08.500Z,13.50
2022-10-09T21:13:37.104Z,13.50
2022-10-09T21:16:11.028Z,13.40
2022-10-09T21:18:39.422Z,13.40
2022-10-09T21:21:12.281Z,13.40
2022-10-09T21:23:40.388Z,13.30
2022-10-09T21:26:16.394Z,13.30
2022-10-09T21:28:44.491Z,13.30
2022-10-09T21:31:16.444Z,13.30
2022-10-09T21:33:43.625Z,13.30
2022-10-09T21:36:24.043Z,13.30
2022-10-09T21:38:51.327Z,13.30
2022-10-09T21:41:18.527Z,13.30
2022-10-09T21:43:45.700Z,13.20
2022-10-09T21:46:12.703Z,13.20
2022-10-09T21:48:39.843Z,13.20
2022-10-09T21:51:06.844Z,13.10
2022-10-09T21:53:34.225Z,13.10
2022-10-09T21:56:04.564Z,13.10
2022-10-09T21:58:31.847Z,13.10
2022-10-09T22:01:03.687Z,13.10
2022-10-09T22:03:32.995Z,13.10
2022-10-09T22:06:00.603Z,13.10
2022-10-09T22:08:28.212Z,13.10
2022-10-09T22:10:55.240Z,13.00
2022-10-09T22:13:22.460Z,12.90
2022-10-09T22:15:51.285Z,12.90
2022-10-09T22:18:18.888Z,12.90
2022-10-09T22:20:49.293Z,12.90
2022-10-09T22:23:19.064Z,12.80
2022-10-09T22:26:01.139Z,12.80
2022-10-09T22:28:28.172Z,12.80
2022-10-09T22:31:02.594Z,12.80
2022-10-09T22:33:30.053Z,12.80
2022-10-09T22:36:31.611Z,12.70
2022-10-09T22:39:01.812Z,12.70
2022-10-09T22:41:30.378Z,12.70
2022-10-09T22:43:59.925Z,12.60
2022-10-09T22:46:29.721Z,12.60
2022-10-09T22:48:57.568Z,12.60
2022-10-09T22:51:27.346Z,12.50
2022-10-09T22:53:56.985Z,12.50
2022-10-09T22:56:28.107Z,12.50
2022-10-09T22:58:55.363Z,12.50
2022-10-09T23:01:38.573Z,12.40
2022-10-09T23:04:13.167Z,12.40
2022-10-09T23:06:41.432Z,12.40
2022-10-09T23:09:12.176Z,12.40
2022-10-09T23:11:39.338Z,12.30
2022-10-09T23:14:06.524Z,12.30
2022-10-09T23:16:34.404Z,12.30
2022-10-09T23:19:06.724Z,12.30
2022-10-09T23:21:37.709Z,12.20
2022-10-09T23:24:07.366Z,12.20
2022-10-09T23:26:36.322Z,12.20
2022-10-09T23:29:09.902Z,12.20
2022-10-09T23:31:37.330Z,12.20
2022-10-09T23:34:06.039Z,12.20
2022-10-09T23:36:33.781Z,12.20
2022-10-09T23:39:03.137Z,12.10
2022-10-09T23:41:30.638Z,12.10
2022-10-09T23:43:58.187Z,12.10
2022-10-09T23:46:28.658Z,12.10
2022-10-09T23:48:56.531Z,12.10
2022-10-09T23:51:25.353Z,12.10
2022-10-09T23:53:52.850Z,12.10
2022-10-09T23:56:25.676Z,12.10
2022-10-09T23:58:54.266Z,12.10
